createdAt,value
2022-11-23T00:00:00.195Z,44.10
2022-11-23T00:02:26.701Z,44.10
2022-11-23T00:04:53.179Z,44.10
2022-11-23T00:07:19.736Z,43.50
2022-11-23T00:09:46.175Z,43.60
2022-11-23T00:12:12.596Z,43.50
2022-11-23T00:14:39.062Z,44.10
2022-11-23T00:17:05.527Z,44.00
2022-11-23T00:19:32.313Z,44.00
2022-11-23T00:21:58.988Z,44.00
2022-11-23T00:24:25.436Z,43.90
2022-11-23T00:26:51.900Z,43.40
2022-11-23T00:29:18.372Z,43.90
2022-11-23T00:31:44.813Z,43.80
2022-11-23T00:34:11.280Z,43.80
2022-11-23T00:36:37.759Z,43.80
2022-11-23T00:39:04.191Z,43.90
2022-11-23T00:41:30.658Z,43.30
2022-11-23T00:43:57.142Z,43.90
2022-11-23T00:46:23.572Z,43.90
2022-11-23T00:48:50.056Z,43.30
2022-11-23T00:51:16.558Z,43.40
2022-11-23T00:53:42.992Z,43.40
2022-11-23T00:56:09.444Z,43.90
2022-11-23T00:58:35.851Z,43.40
2022-11-23T01:01:02.335Z,44.50
2022-11-23T01:03:28.838Z,43.90
2022-11-23T01:05:55.264Z,43.90
2022-11-23T01:08:21.701Z,43.40
2022-11-23T01:10:48.163Z,43.30
2022-11-23T01:13:14.655Z,43.90
2022-11-23T01:15:41.092Z,43.20
2022-11-23T01:18:07.572Z,43.80
2022-11-23T01:20:34.045Z,43.80
2022-11-23T01:23:00.505Z,43.80
2022-11-23T01:25:26.940Z,43.20
2022-11-23T01:27:53.438Z,43.00
2022-11-23T01:30:19.905Z,43.20
2022-11-23T01:32:46.328Z,43.80
2022-11-23T01:35:12.761Z,43.70
2022-11-23T01:37:39.231Z,43.20
2022-11-23T01:40:05.677Z,43.20
2022-11-23T01:42:32.088Z,43.70
2022-11-23T01:44:58.561Z,43.30
2022-11-23T01:47:25.048Z,43.10
2022-11-23T01:49:51.517Z,43.10
2022-11-23T01:52:17.958Z,43.60
2022-11-23T01:54:44.418Z,43.70
2022-11-23T01:57:10.924Z,44.00
2022-11-23T01:59:37.374Z,44.00
2022-11-23T02:02:03.834Z,44.00
2022-11-23T02:04:30.254Z,44.00
2022-11-23T02:06:56.668Z,43.50
2022-11-23T02:09:23.093Z,44.00
2022-11-23T02:11:49.546Z,44.00
2022-11-23T02:14:20.480Z,43.60
2022-11-23T02:16:49.781Z,43.70
2022-11-23T02:19:16.228Z,43.60
2022-11-23T02:21:42.702Z,44.20
2022-11-23T02:24:09.127Z,44.20
2022-11-23T02:26:35.603Z,44.20
2022-11-23T02:29:02.033Z,43.60
2022-11-23T02:31:28.493Z,44.10
2022-11-23T02:33:54.956Z,43.60
2022-11-23T02:36:21.386Z,43.70
2022-11-23T02:38:47.850Z,43.60
2022-11-23T02:41:14.320Z,44.30
2022-11-23T02:43:40.787Z,43.70
2022-11-23T02:46:07.216Z,44.10
2022-11-23T02:48:33.680Z,43.40
2022-11-23T02:51:00.116Z,44.40
2022-11-23T02:53:26.533Z,44.00
2022-11-23T02:55:52.956Z,43.90
2022-11-23T02:58:19.384Z,43.90
2022-11-23T03:00:45.869Z,43.50
2022-11-23T03:03:12.339Z,43.90
2022-11-23T03:05:38.810Z,43.90
2022-11-23T03:08:05.243Z,43.80
2022-11-23T03:10:31.674Z,43.40
2022-11-23T03:12:58.083Z,43.30
2022-11-23T03:15:24.588Z,43.30
2022-11-23T03:17:51.070Z,43.80
2022-11-23T03:20:17.493Z,43.80
2022-11-23T03:22:43.915Z,43.80
2022-11-23T03:27:37.415Z,43.10
2022-11-23T03:30:03.831Z,43.10
2022-11-23T03:32:30.308Z,43.70
2022-11-23T03:34:56.784Z,43.20
2022-11-23T03:37:23.254Z,43.60
2022-11-23T03:39:49.716Z,43.40
2022-11-23T03:42:16.184Z,43.90
2022-11-23T03:44:42.672Z,43.40
2022-11-23T03:47:09.100Z,43.90
2022-11-23T03:49:35.551Z,44.10
2022-11-23T03:52:02.018Z,44.10
2022-11-23T03:54:28.447Z,43.70
2022-11-23T03:56:54.868Z,43.60
2022-11-23T03:59:21.324Z,44.10
2022-11-23T04:01:47.742Z,43.60
2022-11-23T04:04:14.217Z,44.00
2022-11-23T04:06:40.681Z,43.60
2022-11-23T04:09:07.109Z,43.50
2022-11-23T04:11:33.528Z,44.00
2022-11-23T04:13:59.997Z,43.90
2022-11-23T04:16:26.469Z,44.00
2022-11-23T04:18:52.899Z,43.30
2022-11-23T04:21:19.316Z,44.00
2022-11-23T04:23:45.780Z,43.90
2022-11-23T04:26:12.216Z,43.90
2022-11-23T04:28:38.679Z,43.60
2022-11-23T04:31:05.143Z,44.00
2022-11-23T04:33:31.574Z,43.40
2022-11-23T04:35:58.026Z,44.00
2022-11-23T04:38:24.484Z,43.50
2022-11-23T04:40:50.916Z,43.30
2022-11-23T04:43:17.328Z,43.90
2022-11-23T04:45:43.792Z,43.40
2022-11-23T04:48:10.232Z,43.50
2022-11-23T04:50:38.792Z,43.40
2022-11-23T04:53:06.911Z,44.00
2022-11-23T04:55:33.348Z,43.90
2022-11-23T04:57:59.792Z,44.00
2022-11-23T05:00:26.209Z,43.40
2022-11-23T05:02:52.675Z,43.90
2022-11-23T05:05:19.154Z,44.00
2022-11-23T05:07:45.653Z,43.90
2022-11-23T05:10:12.134Z,44.00
2022-11-23T05:12:38.612Z,43.60
2022-11-23T05:15:05.033Z,44.00
2022-11-23T05:17:31.444Z,44.00
2022-11-23T05:19:57.886Z,43.40
2022-11-23T05:22:24.357Z,44.00
2022-11-23T05:24:50.837Z,43.40
2022-11-23T05:27:17.281Z,43.90
2022-11-23T05:29:43.773Z,43.80
2022-11-23T05:32:10.226Z,43.10
2022-11-23T05:34:36.709Z,43.80
2022-11-23T05:37:03.139Z,43.90
2022-11-23T05:39:29.691Z,44.10
2022-11-23T05:41:56.184Z,43.80
2022-11-23T05:44:22.618Z,43.50
2022-11-23T05:46:49.085Z,43.70
2022-11-23T05:49:15.544Z,44.10
2022-11-23T05:51:41.991Z,44.10
2022-11-23T05:54:08.448Z,44.00
2022-11-23T05:56:39.999Z,44.10
2022-11-23T05:59:06.779Z,43.70
2022-11-23T06:01:33.249Z,44.00
2022-11-23T06:03:59.743Z,43.50
2022-11-23T06:06:26.231Z,44.10
2022-11-23T06:08:52.709Z,44.10
2022-11-23T06:11:19.137Z,44.10
2022-11-23T06:13:45.565Z,44.10
2022-11-23T06:16:12.030Z,43.50
2022-11-23T06:18:38.558Z,44.00
2022-11-23T06:21:05.071Z,43.90
2022-11-23T06:23:31.545Z,43.90
2022-11-23T06:25:58.025Z,43.90
2022-11-23T06:28:24.448Z,43.90
2022-11-23T06:30:50.891Z,43.90
2022-11-23T06:33:17.318Z,43.90
2022-11-23T06:35:43.807Z,43.70
2022-11-23T06:38:10.340Z,43.70
2022-11-23T06:40:36.836Z,43.50
2022-11-23T06:43:03.332Z,43.40
2022-11-23T06:45:29.761Z,43.40
2022-11-23T06:47:56.191Z,43.40
2022-11-23T06:50:22.655Z,43.50
2022-11-23T06:52:49.086Z,43.40
2022-11-23T06:55:15.570Z,43.60
2022-11-23T06:57:41.998Z,44.10
2022-11-23T07:00:08.434Z,44.30
2022-11-23T07:02:34.905Z,44.30
2022-11-23T07:05:01.394Z,44.40
2022-11-23T07:07:27.870Z,44.40
2022-11-23T07:09:57.433Z,43.90
2022-11-23T07:12:24.150Z,43.90
2022-11-23T07:14:50.620Z,43.80
2022-11-23T07:17:17.654Z,43.80
2022-11-23T07:19:44.254Z,44.00
2022-11-23T07:22:10.676Z,44.60
2022-11-23T07:24:41.528Z,44.60
2022-11-23T07:27:10.416Z,44.70
2022-11-23T07:29:36.879Z,44.00
2022-11-23T07:32:03.327Z,44.10
2022-11-23T07:34:29.801Z,44.80
2022-11-23T07:37:00.643Z,44.70
2022-11-23T07:39:42.232Z,44.60
2022-11-23T07:42:32.406Z,44.50
2022-11-23T07:45:00.355Z,44.20
2022-11-23T07:47:26.777Z,44.20
2022-11-23T07:49:53.246Z,43.80
2022-11-23T07:52:19.700Z,43.80
2022-11-23T07:54:46.160Z,42.90
2022-11-23T07:57:12.584Z,43.40
2022-11-23T07:59:39.043Z,43.20
2022-11-23T08:02:05.496Z,43.80
2022-11-23T08:04:32.340Z,43.90
2022-11-23T08:06:58.972Z,43.20
2022-11-23T08:09:25.434Z,43.70
2022-11-23T08:11:51.875Z,43.60
2022-11-23T08:14:18.299Z,42.60
2022-11-23T08:16:44.743Z,43.60
2022-11-23T08:19:11.163Z,43.10
2022-11-23T08:21:37.651Z,43.50
2022-11-23T08:24:04.122Z,42.90
2022-11-23T08:26:30.597Z,43.40
2022-11-23T08:28:57.071Z,43.00
2022-11-23T08:31:23.498Z,43.40
2022-11-23T08:33:49.935Z,43.40
2022-11-23T08:36:16.353Z,43.00
2022-11-23T08:38:42.779Z,43.50
2022-11-23T08:41:09.259Z,42.90
2022-11-23T08:43:35.730Z,43.50
2022-11-23T08:46:06.685Z,43.40
2022-11-23T08:48:33.316Z,43.30
2022-11-23T08:50:59.738Z,42.80
2022-11-23T08:53:26.214Z,43.30
2022-11-23T08:55:52.642Z,43.30
2022-11-23T08:58:19.094Z,43.30
2022-11-23T09:00:45.561Z,42.80
2022-11-23T09:03:11.988Z,43.40
2022-11-23T09:05:38.450Z,43.40
2022-11-23T09:08:04.925Z,43.30
2022-11-23T09:10:31.374Z,43.40
2022-11-23T09:12:57.842Z,43.30
2022-11-23T09:15:24.337Z,43.40
2022-11-23T09:17:50.767Z,43.40
2022-11-23T09:20:17.201Z,43.40
2022-11-23T09:22:43.673Z,43.40
2022-11-23T09:25:10.286Z,43.40
2022-11-23T09:27:36.778Z,43.40
2022-11-23T09:30:03.204Z,42.80
2022-11-23T09:32:29.635Z,43.40
2022-11-23T09:34:56.106Z,43.30
2022-11-23T09:37:22.597Z,43.30
2022-11-23T09:39:49.066Z,43.30
2022-11-23T09:42:15.534Z,43.20
2022-11-23T09:44:41.970Z,42.70
2022-11-23T09:47:08.390Z,43.20
2022-11-23T09:49:34.820Z,43.10
2022-11-23T09:52:01.409Z,43.80
2022-11-23T09:54:27.911Z,43.20
2022-11-23T09:57:00.032Z,43.10
2022-11-23T09:59:27.991Z,42.70
2022-11-23T10:01:54.524Z,43.20
2022-11-23T10:04:20.962Z,43.20
2022-11-23T10:06:47.425Z,43.20
2022-11-23T10:09:13.866Z,42.50
2022-11-23T10:11:40.345Z,43.20
2022-11-23T10:14:06.838Z,43.10
2022-11-23T10:16:33.314Z,43.20
2022-11-23T10:18:59.748Z,42.50
2022-11-23T10:21:26.176Z,43.10
2022-11-23T10:23:52.672Z,43.10
2022-11-23T10:26:19.145Z,43.10
2022-11-23T10:28:45.586Z,43.20
2022-11-23T10:31:12.016Z,43.10
2022-11-23T10:33:38.436Z,43.20
2022-11-23T10:36:04.919Z,43.20
2022-11-23T10:38:31.381Z,43.10
2022-11-23T10:40:57.812Z,43.20
2022-11-23T10:43:24.278Z,43.30
2022-11-23T10:45:52.048Z,43.20
2022-11-23T10:48:20.111Z,43.30
2022-11-23T10:50:46.545Z,43.20
2022-11-23T10:53:13.007Z,43.30
2022-11-23T10:55:39.481Z,43.30
2022-11-23T10:58:05.924Z,43.30
2022-11-23T11:00:32.348Z,43.30
2022-11-23T11:02:58.795Z,43.40
2022-11-23T11:05:40.253Z,43.30
2022-11-23T11:08:11.622Z,43.30
2022-11-23T11:10:38.055Z,42.70
2022-11-23T11:13:04.487Z,42.70
2022-11-23T11:15:30.922Z,43.30
2022-11-23T11:17:57.344Z,43.30
2022-11-23T11:20:23.873Z,43.40
2022-11-23T11:22:50.345Z,43.20
2022-11-23T11:25:16.809Z,43.30
2022-11-23T11:27:43.235Z,43.20
2022-11-23T11:30:09.708Z,42.60
2022-11-23T11:32:36.205Z,42.60
2022-11-23T11:35:02.709Z,42.70
2022-11-23T11:37:29.206Z,43.20
2022-11-23T11:39:55.661Z,43.30
2022-11-23T11:42:22.088Z,42.90
2022-11-23T11:44:48.519Z,43.40
2022-11-23T11:47:14.944Z,43.50
2022-11-23T11:49:41.379Z,43.80
2022-11-23T11:52:07.841Z,43.20
2022-11-23T11:54:34.541Z,43.70
2022-11-23T11:57:01.087Z,43.70
2022-11-23T11:59:27.578Z,43.80
2022-11-23T12:01:54.082Z,43.90
2022-11-23T12:04:20.507Z,43.80
2022-11-23T12:06:46.978Z,43.90
2022-11-23T12:09:13.540Z,43.40
2022-11-23T12:11:40.006Z,43.90
2022-11-23T12:14:06.470Z,43.90
2022-11-23T12:16:32.983Z,43.80
2022-11-23T12:18:59.490Z,44.00
2022-11-23T12:21:26.025Z,44.10
2022-11-23T12:23:52.531Z,43.90
2022-11-23T12:26:19.021Z,43.90
2022-11-23T12:28:45.480Z,43.30
2022-11-23T12:31:11.911Z,43.60
2022-11-23T12:33:38.344Z,43.80
2022-11-23T12:36:04.773Z,43.80
2022-11-23T12:38:31.194Z,43.80
2022-11-23T12:40:57.649Z,43.70
2022-11-23T12:43:24.143Z,43.30
2022-11-23T12:45:50.590Z,43.70
2022-11-23T12:48:17.032Z,42.90
2022-11-23T12:50:43.494Z,43.70
2022-11-23T12:53:09.947Z,43.70
2022-11-23T12:55:36.463Z,43.80
2022-11-23T12:58:02.907Z,43.70
2022-11-23T13:00:29.449Z,43.60
2022-11-23T13:02:56.000Z,43.20
2022-11-23T13:05:22.465Z,43.60
2022-11-23T13:07:49.424Z,43.70
2022-11-23T13:10:16.197Z,43.70
2022-11-23T13:12:42.663Z,43.60
2022-11-23T13:15:09.114Z,43.70
2022-11-23T13:17:35.557Z,43.60
2022-11-23T13:20:02.044Z,43.60
2022-11-23T13:22:28.532Z,43.60
2022-11-23T13:24:54.964Z,43.00
2022-11-23T13:27:21.455Z,43.60
2022-11-23T13:29:47.886Z,43.40
2022-11-23T13:32:14.357Z,43.70
2022-11-23T13:34:40.804Z,43.60
2022-11-23T13:37:14.640Z,43.60
2022-11-23T13:39:41.126Z,43.70
2022-11-23T13:42:07.576Z,43.10
2022-11-23T13:44:34.335Z,43.10
2022-11-23T13:47:01.083Z,43.70
2022-11-23T13:49:27.511Z,43.80
2022-11-23T13:51:53.983Z,43.80
2022-11-23T13:54:20.457Z,43.80
2022-11-23T13:56:46.971Z,43.80
2022-11-23T13:59:13.446Z,43.80
2022-11-23T14:01:40.036Z,43.20
2022-11-23T14:04:06.567Z,43.40
2022-11-23T14:06:33.078Z,43.80
2022-11-23T14:08:59.562Z,43.80
2022-11-23T14:11:25.991Z,43.30
2022-11-23T14:13:52.414Z,43.80
2022-11-23T14:16:19.019Z,43.80
2022-11-23T14:18:45.507Z,43.80
2022-11-23T14:21:11.951Z,43.30
2022-11-23T14:23:38.382Z,43.80
2022-11-23T14:26:04.836Z,43.30
2022-11-23T14:28:31.264Z,43.70
2022-11-23T14:30:57.728Z,43.70
2022-11-23T14:33:24.167Z,43.20
2022-11-23T14:35:50.644Z,43.70
2022-11-23T14:38:17.079Z,43.20
2022-11-23T14:40:43.525Z,43.20
2022-11-23T14:43:09.960Z,43.80
2022-11-23T14:45:36.417Z,43.80
2022-11-23T14:48:02.911Z,43.80
2022-11-23T14:50:29.411Z,43.80
2022-11-23T14:52:55.914Z,44.00
2022-11-23T14:55:22.397Z,43.40
2022-11-23T14:57:48.863Z,43.90
2022-11-23T15:00:15.301Z,43.90
2022-11-23T15:02:41.802Z,43.50
2022-11-23T15:05:08.372Z,43.50
2022-11-23T15:07:34.978Z,44.00
2022-11-23T15:10:01.541Z,43.90
2022-11-23T15:12:28.073Z,43.40
2022-11-23T15:14:54.532Z,43.90
2022-11-23T15:17:21.005Z,43.90
2022-11-23T15:19:47.518Z,43.90
2022-11-23T15:22:13.979Z,43.90
2022-11-23T15:24:40.442Z,43.90
2022-11-23T15:27:12.384Z,43.90
2022-11-23T15:29:39.471Z,43.80
2022-11-23T15:32:29.282Z,43.40
2022-11-23T15:34:52.470Z,43.20
2022-11-23T15:37:18.971Z,43.80
2022-11-23T15:39:45.457Z,43.10
2022-11-23T15:42:11.948Z,43.70
2022-11-23T15:44:38.499Z,43.80
2022-11-23T15:47:05.036Z,43.90
2022-11-23T15:49:31.692Z,44.00
2022-11-23T15:51:58.348Z,44.00
2022-11-23T15:54:24.818Z,44.00
2022-11-23T15:56:51.301Z,44.00
2022-11-23T15:59:17.771Z,43.60
2022-11-23T16:01:44.338Z,43.60
2022-11-23T16:04:10.881Z,44.10
2022-11-23T16:06:37.358Z,44.00
2022-11-23T16:09:10.094Z,45.30
2022-11-23T16:11:44.012Z,43.50
2022-11-23T16:14:10.535Z,44.10
2022-11-23T16:16:40.282Z,44.00
2022-11-23T16:19:09.204Z,43.50
2022-11-23T16:21:35.675Z,43.60
2022-11-23T16:24:02.138Z,44.00
2022-11-23T16:26:28.607Z,44.00
2022-11-23T16:28:55.098Z,44.10
2022-11-23T16:31:21.622Z,43.60
2022-11-23T16:33:48.135Z,44.00
2022-11-23T16:36:14.607Z,44.10
2022-11-23T16:38:41.036Z,44.10
2022-11-23T16:41:07.514Z,43.90
2022-11-23T16:43:33.951Z,43.30
2022-11-23T16:46:00.510Z,44.00
2022-11-23T16:48:27.006Z,43.90
2022-11-23T16:50:53.475Z,43.30
2022-11-23T16:53:19.981Z,43.90
2022-11-23T16:55:46.439Z,43.90
2022-11-23T16:58:12.879Z,43.80
2022-11-23T17:00:39.358Z,43.70
2022-11-23T17:03:05.847Z,44.30
2022-11-23T17:05:32.327Z,44.50
2022-11-23T17:07:58.834Z,43.60
2022-11-23T17:10:25.375Z,44.20
2022-11-23T17:12:51.857Z,44.40
2022-11-23T17:15:18.292Z,44.70
2022-11-23T17:17:44.714Z,44.80
2022-11-23T17:20:11.207Z,44.50
2022-11-23T17:22:37.678Z,43.90
2022-11-23T17:25:04.174Z,45.10
2022-11-23T17:27:30.607Z,44.30
2022-11-23T17:29:57.075Z,44.30
2022-11-23T17:32:23.556Z,43.60
2022-11-23T17:34:49.992Z,44.20
2022-11-23T17:37:16.452Z,44.20
2022-11-23T17:39:42.871Z,43.90
2022-11-23T17:42:09.305Z,43.80
2022-11-23T17:44:35.776Z,44.30
2022-11-23T17:47:02.251Z,43.80
2022-11-23T17:49:28.724Z,43.70
2022-11-23T17:51:55.263Z,44.30
2022-11-23T17:54:21.767Z,44.30
2022-11-23T17:56:48.224Z,44.40
2022-11-23T17:59:14.644Z,44.50
2022-11-23T18:01:41.206Z,44.50
2022-11-23T18:04:09.558Z,44.70
2022-11-23T18:06:36.041Z,44.80
2022-11-23T18:09:02.509Z,45.30
2022-11-23T18:11:28.939Z,45.80
2022-11-23T18:13:55.440Z,45.20
2022-11-23T18:16:21.947Z,45.20
2022-11-23T18:18:48.402Z,45.50
2022-11-23T18:21:14.894Z,45.60
2022-11-23T18:23:41.332Z,45.40
2022-11-23T18:26:07.802Z,45.50
2022-11-23T18:28:34.265Z,45.30
2022-11-23T18:31:00.769Z,45.30
2022-11-23T18:33:27.296Z,45.20
2022-11-23T18:35:53.732Z,45.10
2022-11-23T18:38:20.239Z,45.00
2022-11-23T18:40:46.714Z,44.80
2022-11-23T18:43:13.163Z,44.90
2022-11-23T18:45:39.624Z,44.80
2022-11-23T18:48:06.123Z,44.20
2022-11-23T18:50:32.566Z,44.80
2022-11-23T18:52:59.001Z,44.80
2022-11-23T18:55:25.433Z,44.20
2022-11-23T18:57:51.887Z,44.80
2022-11-23T19:00:18.370Z,44.70
2022-11-23T19:02:44.911Z,44.80
2022-11-23T19:05:11.372Z,44.80
2022-11-23T19:07:37.912Z,44.80
2022-11-23T19:10:04.544Z,44.30
2022-11-23T19:12:31.032Z,44.80
2022-11-23T19:14:57.562Z,44.80
2022-11-23T19:17:23.997Z,44.80
2022-11-23T19:19:50.443Z,44.80
2022-11-23T19:22:16.915Z,44.40
2022-11-23T19:24:43.390Z,44.20
2022-11-23T19:27:09.826Z,44.80
2022-11-23T19:29:36.502Z,44.20
2022-11-23T19:32:03.107Z,44.40
2022-11-23T19:34:29.562Z,44.80
2022-11-23T19:36:56.040Z,44.70
2022-11-23T19:39:22.493Z,44.30
2022-11-23T19:41:48.937Z,44.70
2022-11-23T19:44:15.376Z,44.60
2022-11-23T19:46:41.852Z,44.60
2022-11-23T19:49:08.387Z,44.50
2022-11-23T19:51:34.825Z,44.60
2022-11-23T19:54:01.286Z,44.80
2022-11-23T19:56:27.779Z,44.90
2022-11-23T19:58:54.204Z,45.10
2022-11-23T20:01:20.695Z,45.20
2022-11-23T20:03:47.230Z,45.20
2022-11-23T20:06:13.741Z,45.30
2022-11-23T20:08:40.213Z,44.90
2022-11-23T20:11:06.655Z,45.50
2022-11-23T20:13:33.075Z,44.90
2022-11-23T20:15:59.568Z,45.40
2022-11-23T20:18:29.673Z,45.40
2022-11-23T20:20:56.374Z,45.30
2022-11-23T20:23:22.868Z,44.80
2022-11-23T20:25:49.337Z,45.20
2022-11-23T20:28:15.763Z,45.20
2022-11-23T20:30:42.203Z,45.20
2022-11-23T20:33:08.670Z,45.10
2022-11-23T20:35:35.294Z,45.20
2022-11-23T20:38:01.746Z,45.20
2022-11-23T20:40:28.218Z,45.10
2022-11-23T20:42:54.646Z,45.10
2022-11-23T20:45:21.129Z,45.10
2022-11-23T20:47:47.686Z,45.10
2022-11-23T20:50:14.187Z,44.50
2022-11-23T20:52:40.625Z,45.00
2022-11-23T20:55:07.088Z,45.00
2022-11-23T20:57:33.539Z,45.00
2022-11-23T20:59:59.972Z,45.00
2022-11-23T21:02:26.500Z,44.40
2022-11-23T21:04:52.962Z,44.90
2022-11-23T21:07:19.448Z,44.90
2022-11-23T21:09:45.905Z,44.40
2022-11-23T21:12:12.365Z,44.50
2022-11-23T21:14:38.804Z,45.00
2022-11-23T21:17:05.228Z,44.30
2022-11-23T21:19:31.700Z,44.90
2022-11-23T21:21:58.130Z,44.90
2022-11-23T21:24:24.590Z,44.10
2022-11-23T21:26:51.017Z,44.80
2022-11-23T21:29:17.485Z,44.80
2022-11-23T21:31:44.048Z,44.90
2022-11-23T21:34:10.632Z,44.30
2022-11-23T21:36:37.087Z,44.20
2022-11-23T21:39:03.567Z,44.70
2022-11-23T21:41:29.986Z,44.70
2022-11-23T21:43:56.501Z,44.10
2022-11-23T21:46:22.992Z,44.70
2022-11-23T21:48:49.492Z,44.70
2022-11-23T21:51:15.930Z,44.70
2022-11-23T21:53:42.472Z,44.10
2022-11-23T21:56:08.940Z,44.60
2022-11-23T21:58:35.443Z,44.50
2022-11-23T22:01:01.967Z,44.10
2022-11-23T22:03:28.426Z,44.00
2022-11-23T22:05:54.877Z,44.60
2022-11-23T22:08:29.752Z,44.50
2022-11-23T22:10:56.414Z,44.60
2022-11-23T22:13:22.826Z,44.00
2022-11-23T22:15:49.320Z,44.60
2022-11-23T22:18:15.840Z,43.90
2022-11-23T22:20:42.271Z,44.50
2022-11-23T22:23:08.720Z,44.50
2022-11-23T22:25:35.148Z,44.50
2022-11-23T22:28:01.585Z,44.50
2022-11-23T22:30:28.033Z,44.50
2022-11-23T22:32:54.517Z,44.50
2022-11-23T22:35:20.960Z,44.50
2022-11-23T22:37:47.391Z,44.50
2022-11-23T22:40:13.819Z,43.90
2022-11-23T22:42:40.248Z,43.90
2022-11-23T22:45:06.675Z,44.40
2022-11-23T22:47:33.095Z,44.40
2022-11-23T22:49:59.520Z,44.40
2022-11-23T22:52:25.956Z,43.80
2022-11-23T22:54:52.379Z,43.80
2022-11-23T22:57:18.800Z,43.60
2022-11-23T22:59:45.220Z,44.30
2022-11-23T23:02:11.672Z,44.00
2022-11-23T23:04:38.126Z,44.40
2022-11-23T23:07:04.555Z,44.40
2022-11-23T23:09:31.002Z,44.50
2022-11-23T23:11:57.418Z,44.60
2022-11-23T23:14:23.859Z,43.50
2022-11-23T23:16:50.331Z,44.00
2022-11-23T23:19:16.809Z,44.60
2022-11-23T23:21:43.267Z,44.10
2022-11-23T23:24:09.698Z,44.70
2022-11-23T23:26:36.135Z,44.60
2022-11-23T23:29:02.551Z,44.60
2022-11-23T23:31:29.058Z,44.60
2022-11-23T23:33:55.538Z,44.00
2022-11-23T23:36:21.971Z,44.50
2022-11-23T23:38:48.411Z,44.50
2022-11-23T23:41:14.830Z,44.50
2022-11-23T23:43:41.343Z,43.90
2022-11-23T23:46:07.850Z,44.50
2022-11-23T23:48:34.330Z,44.40
2022-11-23T23:51:00.755Z,44.40
2022-11-23T23:53:27.215Z,44.30
2022-11-23T23:55:53.659Z,44.30
2022-11-23T23:58:20.108Z,44.60
